sensor_id;sensor_type;location;lat;lon;timestamp;P1;durP1;ratioP1;P2;durP2;ratioP2
45784;SDS011;31489;51.404;5.474;2022-07-09T00:00:47;7.15;;;2.90;;
45784;SDS011;31489;51.404;5.474;2022-07-09T00:03:13;6.05;;;2.88;;
45784;SDS011;31489;51.404;5.474;2022-07-09T00:05:39;5.13;;;2.63;;
45784;SDS011;31489;51.404;5.474;2022-07-09T00:08:05;6.20;;;3.05;;
45784;SDS011;31489;51.404;5.474;2022-07-09T00:10:30;8.85;;;3.42;;
45784;SDS011;31489;51.404;5.474;2022-07-09T00:12:56;5.15;;;3.22;;
45784;SDS011;31489;51.404;5.474;2022-07-09T00:15:22;6.45;;;2.67;;
45784;SDS011;31489;51.404;5.474;2022-07-09T00:17:50;5.13;;;3.10;;
45784;SDS011;31489;51.404;5.474;2022-07-09T00:20:16;6.10;;;3.55;;
45784;SDS011;31489;51.404;5.474;2022-07-09T00:22:42;5.75;;;3.17;;
45784;SDS011;31489;51.404;5.474;2022-07-09T00:25:08;5.38;;;3.20;;
45784;SDS011;31489;51.404;5.474;2022-07-09T00:27:34;6.70;;;3.47;;
45784;SDS011;31489;51.404;5.474;2022-07-09T00:30:00;8.65;;;3.42;;
45784;SDS011;31489;51.404;5.474;2022-07-09T00:32:26;4.47;;;3.20;;
45784;SDS011;31489;51.404;5.474;2022-07-09T00:34:51;8.95;;;3.75;;
45784;SDS011;31489;51.404;5.474;2022-07-09T00:37:17;5.85;;;3.40;;
45784;SDS011;31489;51.404;5.474;2022-07-09T00:39:43;5.00;;;3.30;;
45784;SDS011;31489;51.404;5.474;2022-07-09T00:42:09;6.32;;;3.35;;
45784;SDS011;31489;51.404;5.474;2022-07-09T00:44:36;6.50;;;3.80;;
45784;SDS011;31489;51.404;5.474;2022-07-09T00:47:07;8.75;;;4.18;;
45784;SDS011;31489;51.404;5.474;2022-07-09T00:49:41;5.18;;;3.42;;
45784;SDS011;31489;51.404;5.474;2022-07-09T00:52:09;5.88;;;3.58;;
45784;SDS011;31489;51.404;5.474;2022-07-09T00:54:39;7.03;;;3.72;;
45784;SDS011;31489;51.404;5.474;2022-07-09T00:57:08;4.82;;;3.85;;
45784;SDS011;31489;51.404;5.474;2022-07-09T00:59:38;5.68;;;3.42;;
45784;SDS011;31489;51.404;5.474;2022-07-09T01:02:08;5.05;;;3.60;;
45784;SDS011;31489;51.404;5.474;2022-07-09T01:04:34;6.43;;;3.90;;
45784;SDS011;31489;51.404;5.474;2022-07-09T01:07:00;5.57;;;3.47;;
45784;SDS011;31489;51.404;5.474;2022-07-09T01:09:27;7.00;;;4.03;;
45784;SDS011;31489;51.404;5.474;2022-07-09T01:11:53;5.53;;;4.03;;
45784;SDS011;31489;51.404;5.474;2022-07-09T01:14:19;6.63;;;4.18;;
45784;SDS011;31489;51.404;5.474;2022-07-09T01:16:45;7.45;;;4.03;;
45784;SDS011;31489;51.404;5.474;2022-07-09T01:19:11;8.20;;;3.83;;
45784;SDS011;31489;51.404;5.474;2022-07-09T01:21:37;6.40;;;4.38;;
45784;SDS011;31489;51.404;5.474;2022-07-09T01:24:03;7.45;;;3.80;;
45784;SDS011;31489;51.404;5.474;2022-07-09T01:26:29;6.57;;;4.07;;
45784;SDS011;31489;51.404;5.474;2022-07-09T01:28:55;4.47;;;3.25;;
45784;SDS011;31489;51.404;5.474;2022-07-09T01:31:21;5.03;;;3.95;;
45784;SDS011;31489;51.404;5.474;2022-07-09T01:33:46;5.00;;;3.90;;
45784;SDS011;31489;51.404;5.474;2022-07-09T01:36:12;4.53;;;3.92;;
45784;SDS011;31489;51.404;5.474;2022-07-09T01:38:38;7.22;;;4.60;;
45784;SDS011;31489;51.404;5.474;2022-07-09T01:41:04;6.07;;;4.18;;
45784;SDS011;31489;51.404;5.474;2022-07-09T01:43:30;6.90;;;4.25;;
45784;SDS011;31489;51.404;5.474;2022-07-09T01:45:59;5.72;;;4.20;;
45784;SDS011;31489;51.404;5.474;2022-07-09T01:48:25;6.93;;;4.15;;
45784;SDS011;31489;51.404;5.474;2022-07-09T01:50:52;10.73;;;4.70;;
45784;SDS011;31489;51.404;5.474;2022-07-09T01:53:19;7.80;;;4.43;;
45784;SDS011;31489;51.404;5.474;2022-07-09T01:55:45;5.75;;;4.30;;
45784;SDS011;31489;51.404;5.474;2022-07-09T01:58:11;7.75;;;4.72;;
45784;SDS011;31489;51.404;5.474;2022-07-09T02:00:37;5.53;;;4.35;;
45784;SDS011;31489;51.404;5.474;2022-07-09T02:03:02;8.73;;;4.63;;
45784;SDS011;31489;51.404;5.474;2022-07-09T02:05:28;5.45;;;4.03;;
45784;SDS011;31489;51.404;5.474;2022-07-09T02:07:54;5.97;;;3.80;;
45784;SDS011;31489;51.404;5.474;2022-07-09T02:10:20;6.75;;;4.72;;
45784;SDS011;31489;51.404;5.474;2022-07-09T02:12:48;5.15;;;4.40;;
45784;SDS011;31489;51.404;5.474;2022-07-09T02:15:14;6.20;;;4.32;;
45784;SDS011;31489;51.404;5.474;2022-07-09T02:17:40;7.80;;;4.40;;
45784;SDS011;31489;51.404;5.474;2022-07-09T02:20:06;6.55;;;4.60;;
45784;SDS011;31489;51.404;5.474;2022-07-09T02:22:34;5.63;;;4.72;;
45784;SDS011;31489;51.404;5.474;2022-07-09T02:24:59;7.65;;;5.50;;
45784;SDS011;31489;51.404;5.474;2022-07-09T02:27:25;6.10;;;4.20;;
45784;SDS011;31489;51.404;5.474;2022-07-09T02:29:51;6.20;;;4.60;;
45784;SDS011;31489;51.404;5.474;2022-07-09T02:32:17;6.32;;;4.78;;
45784;SDS011;31489;51.404;5.474;2022-07-09T02:34:42;8.30;;;5.22;;
45784;SDS011;31489;51.404;5.474;2022-07-09T02:37:08;8.80;;;4.70;;
45784;SDS011;31489;51.404;5.474;2022-07-09T02:39:34;6.25;;;4.57;;
45784;SDS011;31489;51.404;5.474;2022-07-09T02:42:00;7.05;;;4.72;;
45784;SDS011;31489;51.404;5.474;2022-07-09T02:44:26;7.22;;;4.88;;
45784;SDS011;31489;51.404;5.474;2022-07-09T02:46:52;8.90;;;5.38;;
45784;SDS011;31489;51.404;5.474;2022-07-09T02:49:18;6.75;;;5.18;;
45784;SDS011;31489;51.404;5.474;2022-07-09T02:51:46;9.15;;;5.28;;
45784;SDS011;31489;51.404;5.474;2022-07-09T02:54:11;7.03;;;4.65;;
45784;SDS011;31489;51.404;5.474;2022-07-09T02:56:37;6.13;;;4.60;;
45784;SDS011;31489;51.404;5.474;2022-07-09T02:59:03;7.40;;;5.22;;
45784;SDS011;31489;51.404;5.474;2022-07-09T03:01:29;8.50;;;5.82;;
45784;SDS011;31489;51.404;5.474;2022-07-09T03:03:54;7.25;;;5.05;;
45784;SDS011;31489;51.404;5.474;2022-07-09T03:06:21;10.15;;;5.53;;
45784;SDS011;31489;51.404;5.474;2022-07-09T03:08:47;6.45;;;5.10;;
45784;SDS011;31489;51.404;5.474;2022-07-09T03:11:13;6.07;;;5.13;;
45784;SDS011;31489;51.404;5.474;2022-07-09T03:13:39;6.68;;;5.30;;
45784;SDS011;31489;51.404;5.474;2022-07-09T03:16:05;8.00;;;5.68;;
45784;SDS011;31489;51.404;5.474;2022-07-09T03:18:31;5.82;;;4.57;;
45784;SDS011;31489;51.404;5.474;2022-07-09T03:20:58;7.80;;;5.38;;
45784;SDS011;31489;51.404;5.474;2022-07-09T03:23:24;5.93;;;4.90;;
45784;SDS011;31489;51.404;5.474;2022-07-09T03:25:50;7.20;;;5.63;;
45784;SDS011;31489;51.404;5.474;2022-07-09T03:28:16;5.85;;;5.18;;
45784;SDS011;31489;51.404;5.474;2022-07-09T03:30:42;8.57;;;4.97;;
45784;SDS011;31489;51.404;5.474;2022-07-09T03:33:08;7.90;;;5.45;;
45784;SDS011;31489;51.404;5.474;2022-07-09T03:35:34;6.65;;;5.60;;
45784;SDS011;31489;51.404;5.474;2022-07-09T03:38:00;8.43;;;6.50;;
45784;SDS011;31489;51.404;5.474;2022-07-09T03:40:26;7.97;;;6.63;;
45784;SDS011;31489;51.404;5.474;2022-07-09T03:42:52;12.50;;;7.47;;
45784;SDS011;31489;51.404;5.474;2022-07-09T03:45:18;13.43;;;8.00;;
45784;SDS011;31489;51.404;5.474;2022-07-09T03:47:43;12.95;;;9.07;;
45784;SDS011;31489;51.404;5.474;2022-07-09T03:50:09;15.07;;;9.50;;
45784;SDS011;31489;51.404;5.474;2022-07-09T03:52:37;14.48;;;9.52;;
45784;SDS011;31489;51.404;5.474;2022-07-09T03:55:04;11.70;;;9.80;;
45784;SDS011;31489;51.404;5.474;2022-07-09T03:57:31;12.20;;;10.55;;
45784;SDS011;31489;51.404;5.474;2022-07-09T03:59:57;10.43;;;9.15;;
45784;SDS011;31489;51.404;5.474;2022-07-09T04:02:23;12.40;;;10.32;;
45784;SDS011;31489;51.404;5.474;2022-07-09T04:04:48;12.88;;;11.10;;
45784;SDS011;31489;51.404;5.474;2022-07-09T04:07:15;12.55;;;10.18;;
45784;SDS011;31489;51.404;5.474;2022-07-09T04:09:40;11.25;;;9.63;;
45784;SDS011;31489;51.404;5.474;2022-07-09T04:12:06;12.80;;;10.88;;
45784;SDS011;31489;51.404;5.474;2022-07-09T04:14:33;15.10;;;11.35;;
45784;SDS011;31489;51.404;5.474;2022-07-09T04:16:59;13.60;;;11.52;;
45784;SDS011;31489;51.404;5.474;2022-07-09T04:19:24;13.57;;;12.18;;
45784;SDS011;31489;51.404;5.474;2022-07-09T04:21:50;12.07;;;10.88;;
45784;SDS011;31489;51.404;5.474;2022-07-09T04:24:16;14.40;;;12.77;;
45784;SDS011;31489;51.404;5.474;2022-07-09T04:26:42;14.63;;;12.90;;
45784;SDS011;31489;51.404;5.474;2022-07-09T04:29:08;16.75;;;13.05;;
45784;SDS011;31489;51.404;5.474;2022-07-09T04:31:34;20.02;;;14.40;;
45784;SDS011;31489;51.404;5.474;2022-07-09T04:34:00;18.40;;;14.10;;
45784;SDS011;31489;51.404;5.474;2022-07-09T04:36:26;16.98;;;14.18;;
45784;SDS011;31489;51.404;5.474;2022-07-09T04:38:53;15.60;;;13.98;;
45784;SDS011;31489;51.404;5.474;2022-07-09T04:41:20;18.92;;;14.20;;
45784;SDS011;31489;51.404;5.474;2022-07-09T04:43:46;17.38;;;15.00;;
45784;SDS011;31489;51.404;5.474;2022-07-09T04:46:11;16.25;;;14.15;;
45784;SDS011;31489;51.404;5.474;2022-07-09T04:48:39;17.23;;;15.07;;
45784;SDS011;31489;51.404;5.474;2022-07-09T04:51:05;20.70;;;16.40;;
45784;SDS011;31489;51.404;5.474;2022-07-09T04:53:30;17.52;;;15.65;;
45784;SDS011;31489;51.404;5.474;2022-07-09T04:55:56;18.55;;;16.52;;
45784;SDS011;31489;51.404;5.474;2022-07-09T04:58:22;21.23;;;16.90;;
45784;SDS011;31489;51.404;5.474;2022-07-09T05:00:48;19.60;;;16.27;;
45784;SDS011;31489;51.404;5.474;2022-07-09T05:03:14;21.92;;;17.58;;
45784;SDS011;31489;51.404;5.474;2022-07-09T05:05:40;23.70;;;18.13;;
45784;SDS011;31489;51.404;5.474;2022-07-09T05:08:06;21.60;;;17.95;;
45784;SDS011;31489;51.404;5.474;2022-07-09T05:10:32;24.35;;;18.45;;
45784;SDS011;31489;51.404;5.474;2022-07-09T05:12:58;21.67;;;18.60;;
45784;SDS011;31489;51.404;5.474;2022-07-09T05:15:24;20.75;;;18.00;;
45784;SDS011;31489;51.404;5.474;2022-07-09T05:17:50;22.75;;;18.67;;
45784;SDS011;31489;51.404;5.474;2022-07-09T05:20:18;23.80;;;19.50;;
45784;SDS011;31489;51.404;5.474;2022-07-09T05:22:44;20.60;;;17.88;;
45784;SDS011;31489;51.404;5.474;2022-07-09T05:25:09;24.95;;;18.45;;
45784;SDS011;31489;51.404;5.474;2022-07-09T05:27:43;23.35;;;18.83;;
45784;SDS011;31489;51.404;5.474;2022-07-09T05:30:10;21.25;;;17.95;;
45784;SDS011;31489;51.404;5.474;2022-07-09T05:32:39;22.67;;;18.70;;
45784;SDS011;31489;51.404;5.474;2022-07-09T05:35:05;19.58;;;17.45;;
45784;SDS011;31489;51.404;5.474;2022-07-09T05:37:31;22.75;;;18.30;;
45784;SDS011;31489;51.404;5.474;2022-07-09T05:39:57;19.15;;;17.05;;
45784;SDS011;31489;51.404;5.474;2022-07-09T05:42:23;22.35;;;18.40;;
45784;SDS011;31489;51.404;5.474;2022-07-09T05:44:49;19.90;;;17.50;;
45784;SDS011;31489;51.404;5.474;2022-07-09T05:47:15;22.60;;;17.88;;
45784;SDS011;31489;51.404;5.474;2022-07-09T05:49:42;22.40;;;18.63;;
45784;SDS011;31489;51.404;5.474;2022-07-09T05:52:07;20.15;;;18.02;;
45784;SDS011;31489;51.404;5.474;2022-07-09T05:54:33;19.92;;;17.08;;
45784;SDS011;31489;51.404;5.474;2022-07-09T05:56:59;21.35;;;17.80;;
45784;SDS011;31489;51.404;5.474;2022-07-09T05:59:25;21.45;;;17.70;;
45784;SDS011;31489;51.404;5.474;2022-07-09T06:01:51;21.42;;;18.63;;
45784;SDS011;31489;51.404;5.474;2022-07-09T06:04:16;23.25;;;18.90;;
45784;SDS011;31489;51.404;5.474;2022-07-09T06:06:42;21.92;;;18.85;;
45784;SDS011;31489;51.404;5.474;2022-07-09T06:09:08;20.77;;;18.10;;
45784;SDS011;31489;51.404;5.474;2022-07-09T06:11:34;20.63;;;18.48;;
45784;SDS011;31489;51.404;5.474;2022-07-09T06:14:01;24.45;;;18.75;;
45784;SDS011;31489;51.404;5.474;2022-07-09T06:16:26;21.25;;;18.90;;
45784;SDS011;31489;51.404;5.474;2022-07-09T06:18:52;20.88;;;18.63;;
45784;SDS011;31489;51.404;5.474;2022-07-09T06:21:18;18.67;;;16.70;;
45784;SDS011;31489;51.404;5.474;2022-07-09T06:23:43;20.38;;;18.23;;
45784;SDS011;31489;51.404;5.474;2022-07-09T06:26:09;24.42;;;19.05;;
45784;SDS011;31489;51.404;5.474;2022-07-09T06:28:36;21.77;;;18.70;;
45784;SDS011;31489;51.404;5.474;2022-07-09T06:31:02;20.55;;;18.40;;
45784;SDS011;31489;51.404;5.474;2022-07-09T06:33:28;21.55;;;17.73;;
45784;SDS011;31489;51.404;5.474;2022-07-09T06:35:54;21.13;;;18.58;;
45784;SDS011;31489;51.404;5.474;2022-07-09T06:38:20;23.80;;;18.65;;
45784;SDS011;31489;51.404;5.474;2022-07-09T06:40:46;20.92;;;18.65;;
45784;SDS011;31489;51.404;5.474;2022-07-09T06:43:12;20.58;;;17.60;;
45784;SDS011;31489;51.404;5.474;2022-07-09T06:45:38;19.15;;;16.60;;
45784;SDS011;31489;51.404;5.474;2022-07-09T06:48:04;17.88;;;15.98;;
45784;SDS011;31489;51.404;5.474;2022-07-09T06:50:30;19.35;;;16.65;;
45784;SDS011;31489;51.404;5.474;2022-07-09T06:52:55;18.40;;;15.25;;
45784;SDS011;31489;51.404;5.474;2022-07-09T06:55:21;19.05;;;15.52;;
45784;SDS011;31489;51.404;5.474;2022-07-09T06:57:47;16.98;;;13.95;;
45784;SDS011;31489;51.404;5.474;2022-07-09T07:00:13;17.73;;;15.90;;
45784;SDS011;31489;51.404;5.474;2022-07-09T07:02:39;16.90;;;15.25;;
45784;SDS011;31489;51.404;5.474;2022-07-09T07:05:05;19.90;;;16.38;;
45784;SDS011;31489;51.404;5.474;2022-07-09T07:07:31;16.23;;;14.40;;
45784;SDS011;31489;51.404;5.474;2022-07-09T07:09:57;17.90;;;15.48;;
45784;SDS011;31489;51.404;5.474;2022-07-09T07:12:25;19.10;;;16.02;;
45784;SDS011;31489;51.404;5.474;2022-07-09T07:14:52;18.95;;;14.70;;
45784;SDS011;31489;51.404;5.474;2022-07-09T07:17:17;20.42;;;15.18;;
45784;SDS011;31489;51.404;5.474;2022-07-09T07:19:43;18.58;;;16.58;;
45784;SDS011;31489;51.404;5.474;2022-07-09T07:22:09;19.25;;;16.77;;
45784;SDS011;31489;51.404;5.474;2022-07-09T07:24:35;15.23;;;13.60;;
45784;SDS011;31489;51.404;5.474;2022-07-09T07:27:01;19.52;;;15.30;;
45784;SDS011;31489;51.404;5.474;2022-07-09T07:29:27;16.02;;;14.32;;
45784;SDS011;31489;51.404;5.474;2022-07-09T07:31:53;16.75;;;14.30;;
45784;SDS011;31489;51.404;5.474;2022-07-09T07:34:19;18.42;;;13.20;;
45784;SDS011;31489;51.404;5.474;2022-07-09T07:36:47;14.80;;;13.30;;
45784;SDS011;31489;51.404;5.474;2022-07-09T07:39:15;16.23;;;13.25;;
45784;SDS011;31489;51.404;5.474;2022-07-09T07:41:41;12.90;;;10.75;;
45784;SDS011;31489;51.404;5.474;2022-07-09T07:44:06;13.38;;;10.32;;
45784;SDS011;31489;51.404;5.474;2022-07-09T07:46:32;10.48;;;8.40;;
45784;SDS011;31489;51.404;5.474;2022-07-09T07:48:58;11.60;;;7.90;;
45784;SDS011;31489;51.404;5.474;2022-07-09T07:51:23;9.30;;;7.55;;
45784;SDS011;31489;51.404;5.474;2022-07-09T07:53:49;10.23;;;7.10;;
45784;SDS011;31489;51.404;5.474;2022-07-09T07:56:15;10.80;;;8.05;;
45784;SDS011;31489;51.404;5.474;2022-07-09T07:58:41;9.10;;;7.30;;
45784;SDS011;31489;51.404;5.474;2022-07-09T08:01:10;14.20;;;8.45;;
45784;SDS011;31489;51.404;5.474;2022-07-09T08:03:47;11.20;;;8.60;;
45784;SDS011;31489;51.404;5.474;2022-07-09T08:06:13;13.40;;;8.27;;
45784;SDS011;31489;51.404;5.474;2022-07-09T08:08:39;10.85;;;7.03;;
45784;SDS011;31489;51.404;5.474;2022-07-09T08:11:04;10.60;;;7.28;;
45784;SDS011;31489;51.404;5.474;2022-07-09T08:13:30;10.10;;;7.53;;
45784;SDS011;31489;51.404;5.474;2022-07-09T08:15:56;10.85;;;6.80;;
45784;SDS011;31489;51.404;5.474;2022-07-09T08:18:22;12.57;;;8.40;;
45784;SDS011;31489;51.404;5.474;2022-07-09T08:20:48;13.35;;;8.75;;
45784;SDS011;31489;51.404;5.474;2022-07-09T08:23:16;10.25;;;7.30;;
45784;SDS011;31489;51.404;5.474;2022-07-09T08:25:42;11.82;;;9.15;;
45784;SDS011;31489;51.404;5.474;2022-07-09T08:28:09;9.15;;;8.27;;
45784;SDS011;31489;51.404;5.474;2022-07-09T08:30:35;9.23;;;7.82;;
45784;SDS011;31489;51.404;5.474;2022-07-09T08:33:02;11.35;;;7.32;;
45784;SDS011;31489;51.404;5.474;2022-07-09T08:35:28;9.20;;;7.93;;
45784;SDS011;31489;51.404;5.474;2022-07-09T08:37:53;9.05;;;6.30;;
45784;SDS011;31489;51.404;5.474;2022-07-09T08:40:20;8.77;;;7.82;;
45784;SDS011;31489;51.404;5.474;2022-07-09T08:42:47;9.18;;;6.68;;
45784;SDS011;31489;51.404;5.474;2022-07-09T08:45:14;10.77;;;8.00;;
45784;SDS011;31489;51.404;5.474;2022-07-09T08:47:42;11.20;;;8.13;;
45784;SDS011;31489;51.404;5.474;2022-07-09T08:50:08;10.27;;;7.20;;
45784;SDS011;31489;51.404;5.474;2022-07-09T08:52:35;12.27;;;8.90;;
45784;SDS011;31489;51.404;5.474;2022-07-09T08:55:03;12.02;;;8.45;;
45784;SDS011;31489;51.404;5.474;2022-07-09T08:57:30;11.60;;;7.75;;
45784;SDS011;31489;51.404;5.474;2022-07-09T08:59:56;9.15;;;8.15;;
45784;SDS011;31489;51.404;5.474;2022-07-09T09:02:22;10.95;;;8.60;;
45784;SDS011;31489;51.404;5.474;2022-07-09T09:04:48;11.98;;;8.45;;
45784;SDS011;31489;51.404;5.474;2022-07-09T09:07:17;8.18;;;6.28;;
45784;SDS011;31489;51.404;5.474;2022-07-09T09:09:44;10.32;;;7.70;;
45784;SDS011;31489;51.404;5.474;2022-07-09T09:12:11;11.20;;;7.47;;
45784;SDS011;31489;51.404;5.474;2022-07-09T09:14:38;14.18;;;7.53;;
45784;SDS011;31489;51.404;5.474;2022-07-09T09:17:08;10.57;;;8.18;;
45784;SDS011;31489;51.404;5.474;2022-07-09T09:19:36;10.18;;;8.60;;
45784;SDS011;31489;51.404;5.474;2022-07-09T09:22:03;15.40;;;9.43;;
45784;SDS011;31489;51.404;5.474;2022-07-09T09:24:30;11.85;;;8.45;;
45784;SDS011;31489;51.404;5.474;2022-07-09T09:26:56;13.63;;;10.02;;
45784;SDS011;31489;51.404;5.474;2022-07-09T09:29:23;13.05;;;9.10;;
45784;SDS011;31489;51.404;5.474;2022-07-09T09:31:49;10.35;;;8.25;;
45784;SDS011;31489;51.404;5.474;2022-07-09T09:34:16;10.90;;;9.55;;
45784;SDS011;31489;51.404;5.474;2022-07-09T09:36:48;16.30;;;10.85;;
45784;SDS011;31489;51.404;5.474;2022-07-09T09:39:25;14.52;;;10.68;;
45784;SDS011;31489;51.404;5.474;2022-07-09T09:41:57;14.52;;;11.02;;
45784;SDS011;31489;51.404;5.474;2022-07-09T09:44:28;16.33;;;10.90;;
45784;SDS011;31489;51.404;5.474;2022-07-09T09:47:00;12.63;;;11.32;;
45784;SDS011;31489;51.404;5.474;2022-07-09T09:49:26;14.48;;;10.98;;
45784;SDS011;31489;51.404;5.474;2022-07-09T09:51:56;15.02;;;13.05;;
45784;SDS011;31489;51.404;5.474;2022-07-09T09:54:22;13.98;;;12.10;;
45784;SDS011;31489;51.404;5.474;2022-07-09T09:56:48;13.82;;;11.75;;
45784;SDS011;31489;51.404;5.474;2022-07-09T09:59:15;16.08;;;14.32;;
45784;SDS011;31489;51.404;5.474;2022-07-09T10:01:42;15.05;;;13.48;;
45784;SDS011;31489;51.404;5.474;2022-07-09T10:04:08;19.25;;;12.55;;
45784;SDS011;31489;51.404;5.474;2022-07-09T10:06:35;17.13;;;10.68;;
45784;SDS011;31489;51.404;5.474;2022-07-09T10:09:05;17.20;;;12.35;;
45784;SDS011;31489;51.404;5.474;2022-07-09T10:11:39;15.02;;;11.77;;
45784;SDS011;31489;51.404;5.474;2022-07-09T10:16:55;16.00;;;12.07;;
45784;SDS011;31489;51.404;5.474;2022-07-09T10:19:24;16.55;;;10.38;;
45784;SDS011;31489;51.404;5.474;2022-07-09T10:21:57;16.52;;;11.77;;
45784;SDS011;31489;51.404;5.474;2022-07-09T10:24:25;9.45;;;8.50;;
45784;SDS011;31489;51.404;5.474;2022-07-09T10:29:31;13.38;;;10.13;;
45784;SDS011;31489;51.404;5.474;2022-07-09T10:31:57;18.30;;;10.43;;
45784;SDS011;31489;51.404;5.474;2022-07-09T10:37:12;14.88;;;9.55;;
45784;SDS011;31489;51.404;5.474;2022-07-09T10:39:38;15.05;;;9.73;;
45784;SDS011;31489;51.404;5.474;2022-07-09T10:42:04;9.73;;;7.97;;
45784;SDS011;31489;51.404;5.474;2022-07-09T10:44:35;11.95;;;8.32;;
45784;SDS011;31489;51.404;5.474;2022-07-09T10:47:03;11.60;;;8.35;;
45784;SDS011;31489;51.404;5.474;2022-07-09T10:49:30;11.75;;;8.40;;
45784;SDS011;31489;51.404;5.474;2022-07-09T10:51:58;10.57;;;8.20;;
45784;SDS011;31489;51.404;5.474;2022-07-09T10:54:25;11.55;;;7.32;;
45784;SDS011;31489;51.404;5.474;2022-07-09T10:56:51;9.77;;;7.00;;
45784;SDS011;31489;51.404;5.474;2022-07-09T10:59:18;8.63;;;5.38;;
45784;SDS011;31489;51.404;5.474;2022-07-09T11:01:44;9.65;;;5.82;;
45784;SDS011;31489;51.404;5.474;2022-07-09T11:04:11;12.30;;;5.65;;
45784;SDS011;31489;51.404;5.474;2022-07-09T11:06:43;8.57;;;5.10;;
45784;SDS011;31489;51.404;5.474;2022-07-09T11:09:11;6.90;;;3.72;;
45784;SDS011;31489;51.404;5.474;2022-07-09T11:11:38;6.68;;;4.55;;
45784;SDS011;31489;51.404;5.474;2022-07-09T11:14:06;9.23;;;4.03;;
45784;SDS011;31489;51.404;5.474;2022-07-09T11:16:32;5.97;;;3.85;;
45784;SDS011;31489;51.404;5.474;2022-07-09T11:18:57;8.20;;;3.78;;
45784;SDS011;31489;51.404;5.474;2022-07-09T11:21:24;6.85;;;3.45;;
45784;SDS011;31489;51.404;5.474;2022-07-09T11:23:50;9.90;;;3.05;;
45784;SDS011;31489;51.404;5.474;2022-07-09T11:26:16;6.97;;;3.10;;
45784;SDS011;31489;51.404;5.474;2022-07-09T11:28:41;5.53;;;3.42;;
45784;SDS011;31489;51.404;5.474;2022-07-09T11:31:10;6.40;;;2.53;;
45784;SDS011;31489;51.404;5.474;2022-07-09T11:33:36;4.05;;;2.20;;
45784;SDS011;31489;51.404;5.474;2022-07-09T11:36:20;2.80;;;2.08;;
45784;SDS011;31489;51.404;5.474;2022-07-09T11:38:49;4.60;;;2.63;;
45784;SDS011;31489;51.404;5.474;2022-07-09T11:41:16;3.85;;;2.00;;
45784;SDS011;31489;51.404;5.474;2022-07-09T11:43:46;3.40;;;1.80;;
45784;SDS011;31489;51.404;5.474;2022-07-09T11:46:15;4.50;;;1.58;;
45784;SDS011;31489;51.404;5.474;2022-07-09T11:48:51;3.65;;;1.80;;
45784;SDS011;31489;51.404;5.474;2022-07-09T11:51:28;5.45;;;4.43;;
45784;SDS011;31489;51.404;5.474;2022-07-09T11:53:53;6.55;;;3.05;;
45784;SDS011;31489;51.404;5.474;2022-07-09T11:56:19;2.22;;;1.60;;
45784;SDS011;31489;51.404;5.474;2022-07-09T11:58:53;3.00;;;1.70;;
45784;SDS011;31489;51.404;5.474;2022-07-09T12:01:19;2.58;;;1.40;;
45784;SDS011;31489;51.404;5.474;2022-07-09T12:03:50;2.20;;;1.33;;
45784;SDS011;31489;51.404;5.474;2022-07-09T12:06:16;2.75;;;1.50;;
45784;SDS011;31489;51.404;5.474;2022-07-09T12:08:42;3.05;;;1.35;;
45784;SDS011;31489;51.404;5.474;2022-07-09T12:11:08;2.60;;;1.05;;
45784;SDS011;31489;51.404;5.474;2022-07-09T12:13:34;0.98;;;0.90;;
45784;SDS011;31489;51.404;5.474;2022-07-09T12:16:00;1.88;;;1.15;;
45784;SDS011;31489;51.404;5.474;2022-07-09T12:18:26;1.50;;;0.95;;
45784;SDS011;31489;51.404;5.474;2022-07-09T12:20:52;6.55;;;1.30;;
45784;SDS011;31489;51.404;5.474;2022-07-09T12:23:18;2.58;;;1.30;;
45784;SDS011;31489;51.404;5.474;2022-07-09T12:25:43;3.65;;;1.25;;
45784;SDS011;31489;51.404;5.474;2022-07-09T12:28:10;2.92;;;1.10;;
45784;SDS011;31489;51.404;5.474;2022-07-09T12:30:35;1.27;;;1.00;;
45784;SDS011;31489;51.404;5.474;2022-07-09T12:33:01;1.75;;;1.00;;
45784;SDS011;31489;51.404;5.474;2022-07-09T12:35:27;1.27;;;0.80;;
45784;SDS011;31489;51.404;5.474;2022-07-09T12:37:53;2.92;;;1.02;;
45784;SDS011;31489;51.404;5.474;2022-07-09T12:40:21;1.70;;;0.90;;
45784;SDS011;31489;51.404;5.474;2022-07-09T12:42:46;3.20;;;0.80;;
45784;SDS011;31489;51.404;5.474;2022-07-09T12:45:12;3.00;;;0.90;;
45784;SDS011;31489;51.404;5.474;2022-07-09T12:47:38;3.83;;;1.20;;
45784;SDS011;31489;51.404;5.474;2022-07-09T12:50:06;4.45;;;1.33;;
45784;SDS011;31489;51.404;5.474;2022-07-09T12:52:34;1.58;;;0.90;;
45784;SDS011;31489;51.404;5.474;2022-07-09T12:55:00;1.60;;;1.08;;
45784;SDS011;31489;51.404;5.474;2022-07-09T12:57:29;1.90;;;0.88;;
45784;SDS011;31489;51.404;5.474;2022-07-09T12:59:57;1.63;;;0.90;;
45784;SDS011;31489;51.404;5.474;2022-07-09T13:02:22;1.65;;;0.95;;
45784;SDS011;31489;51.404;5.474;2022-07-09T13:04:48;1.85;;;1.05;;
45784;SDS011;31489;51.404;5.474;2022-07-09T13:07:14;1.67;;;1.02;;
45784;SDS011;31489;51.404;5.474;2022-07-09T13:09:40;1.13;;;0.70;;
45784;SDS011;31489;51.404;5.474;2022-07-09T13:12:06;1.92;;;0.85;;
45784;SDS011;31489;51.404;5.474;2022-07-09T13:14:32;3.55;;;0.93;;
45784;SDS011;31489;51.404;5.474;2022-07-09T13:16:58;2.05;;;0.75;;
45784;SDS011;31489;51.404;5.474;2022-07-09T13:19:24;1.75;;;0.65;;
45784;SDS011;31489;51.404;5.474;2022-07-09T13:21:49;1.05;;;0.80;;
45784;SDS011;31489;51.404;5.474;2022-07-09T13:24:15;2.50;;;0.88;;
45784;SDS011;31489;51.404;5.474;2022-07-09T13:26:41;2.35;;;0.90;;
45784;SDS011;31489;51.404;5.474;2022-07-09T13:29:07;2.08;;;0.85;;
45784;SDS011;31489;51.404;5.474;2022-07-09T13:31:33;1.77;;;0.90;;
45784;SDS011;31489;51.404;5.474;2022-07-09T13:33:59;2.53;;;0.90;;
45784;SDS011;31489;51.404;5.474;2022-07-09T13:36:25;2.00;;;0.55;;
45784;SDS011;31489;51.404;5.474;2022-07-09T13:38:51;2.63;;;0.90;;
45784;SDS011;31489;51.404;5.474;2022-07-09T13:41:16;0.82;;;0.80;;
45784;SDS011;31489;51.404;5.474;2022-07-09T13:43:42;1.33;;;0.90;;
45784;SDS011;31489;51.404;5.474;2022-07-09T13:46:10;1.38;;;0.80;;
45784;SDS011;31489;51.404;5.474;2022-07-09T13:48:36;0.80;;;0.70;;
45784;SDS011;31489;51.404;5.474;2022-07-09T13:51:02;1.02;;;0.85;;
45784;SDS011;31489;51.404;5.474;2022-07-09T13:53:28;1.90;;;0.70;;
45784;SDS011;31489;51.404;5.474;2022-07-09T13:55:54;2.25;;;0.80;;
45784;SDS011;31489;51.404;5.474;2022-07-09T13:58:21;1.42;;;0.90;;
45784;SDS011;31489;51.404;5.474;2022-07-09T14:00:46;1.00;;;0.70;;
45784;SDS011;31489;51.404;5.474;2022-07-09T14:03:13;2.17;;;0.82;;
45784;SDS011;31489;51.404;5.474;2022-07-09T14:05:38;1.80;;;0.77;;
45784;SDS011;31489;51.404;5.474;2022-07-09T14:08:05;2.20;;;0.75;;
45784;SDS011;31489;51.404;5.474;2022-07-09T14:10:31;1.85;;;0.80;;
45784;SDS011;31489;51.404;5.474;2022-07-09T14:13:00;3.00;;;0.93;;
45784;SDS011;31489;51.404;5.474;2022-07-09T14:15:26;3.88;;;0.90;;
45784;SDS011;31489;51.404;5.474;2022-07-09T14:17:52;3.00;;;0.80;;
45784;SDS011;31489;51.404;5.474;2022-07-09T14:20:21;3.60;;;1.00;;
45784;SDS011;31489;51.404;5.474;2022-07-09T14:22:46;2.80;;;0.82;;
45784;SDS011;31489;51.404;5.474;2022-07-09T14:25:12;3.67;;;0.98;;
45784;SDS011;31489;51.404;5.474;2022-07-09T14:27:38;2.83;;;0.80;;
45784;SDS011;31489;51.404;5.474;2022-07-09T14:30:04;1.50;;;0.77;;
45784;SDS011;31489;51.404;5.474;2022-07-09T14:32:30;1.90;;;0.90;;
45784;SDS011;31489;51.404;5.474;2022-07-09T14:34:56;5.90;;;1.02;;
45784;SDS011;31489;51.404;5.474;2022-07-09T14:37:21;1.67;;;0.77;;
45784;SDS011;31489;51.404;5.474;2022-07-09T14:39:47;5.55;;;0.90;;
45784;SDS011;31489;51.404;5.474;2022-07-09T14:42:13;2.60;;;0.88;;